SBOSBO EZE / SAEZ
Speedbird OnlineSpeedbird Online EZE / SAEZ

Ministro Pistarini International Airport
17:52 15.7°C

Location Buenos Aires, Argentina
Latitude: -34.8222
Longitude: -58.5358
Local Time 17:52 on 29 May 2024
UTC -3 hours (America/Buenos_Aires)
Currency £1 equals ARS 1,139.72
METAR SAEZ 292000Z 35007KT 9999 BKN029 BKN200 16/11 Q1022 NOSIG
TAF TAF SAEZ 291700Z 2918/3018 36010KT 9999 BKN025 TX17/2918Z TN10/3011Z BECMG 3004/3006 VRB03KT 2000 BR TEMPO 3006/3011 0800 FG BKN003 OVC025 BECMG 3012/3014 9999 NSW SCT030
Weather As Of 29 May 2024 17:52
Description Broken clouds
Wind 13 km/h from North (350°)
Cloud Cover 75%
Precipitation Rain: none, Snow: none
Sunrise 07:51
Sunset 17:52
NOTAM 30 active NOTAM
Rotations During the last 90 days there were
84 flights from GIG
76 flights to GIG
Lounges American Airlines Admirals Club and; Iberia VIP Lounge, Terminal B
LATAM VIP Lounge TEMPORARILY CLOSED, Terminal B
Web Airport Website | Wikipedia
Codes IATA: EZE
ICAO: SAEZ
Altitude 20 Meter / 67 Feet
Distance 11,169 KM / 6,940 Miles
from London.
Runways
RunwayLength (m)Surface
113300Asphalt
173105Asphalt
293300Asphalt
353105Asphalt
Radio
TypeDescriptionFrequency
A/DBAIRES CON124.9
APPEZEIZA APP119.9
ATISATIS127.8
GCCDGND/CLNC DEL121.75
TWREZEIZA TWR118.6
Live ATC



Support Speedbird Online

© 2017-2024 Speedbird Online